sensor_id;sensor_type;location;lat;lon;timestamp;temperature;humidity
33139;DHT22;19501;50.948;5.316;2022-09-09T00:00:21;15.60;99.90
33139;DHT22;19501;50.948;5.316;2022-09-09T00:03:04;15.50;99.90
33139;DHT22;19501;50.948;5.316;2022-09-09T00:08:23;15.40;99.90
33139;DHT22;19501;50.948;5.316;2022-09-09T00:10:58;15.50;99.90
33139;DHT22;19501;50.948;5.316;2022-09-09T00:13:33;15.60;99.90
33139;DHT22;19501;50.948;5.316;2022-09-09T00:16:08;15.50;99.90
33139;DHT22;19501;50.948;5.316;2022-09-09T00:21:25;15.60;99.90
33139;DHT22;19501;50.948;5.316;2022-09-09T00:23:54;15.50;99.90
33139;DHT22;19501;50.948;5.316;2022-09-09T00:28:52;15.60;99.90
33139;DHT22;19501;50.948;5.316;2022-09-09T00:31:26;15.50;99.90
33139;DHT22;19501;50.948;5.316;2022-09-09T00:33:53;15.50;99.90
33139;DHT22;19501;50.948;5.316;2022-09-09T00:36:22;15.50;99.90
33139;DHT22;19501;50.948;5.316;2022-09-09T00:38:57;15.50;99.90
33139;DHT22;19501;50.948;5.316;2022-09-09T00:42:02;15.60;99.90
33139;DHT22;19501;50.948;5.316;2022-09-09T00:44:37;15.60;99.90
33139;DHT22;19501;50.948;5.316;2022-09-09T00:58:30;15.40;99.90
33139;DHT22;19501;50.948;5.316;2022-09-09T01:01:10;15.50;99.90
33139;DHT22;19501;50.948;5.316;2022-09-09T01:03:55;15.40;99.90
33139;DHT22;19501;50.948;5.316;2022-09-09T01:06:35;15.30;99.90
33139;DHT22;19501;50.948;5.316;2022-09-09T01:20:04;15.30;99.90
33139;DHT22;19501;50.948;5.316;2022-09-09T01:28:19;15.40;99.90
33139;DHT22;19501;50.948;5.316;2022-09-09T01:30:47;15.50;99.90
33139;DHT22;19501;50.948;5.316;2022-09-09T01:33:15;15.40;99.90
33139;DHT22;19501;50.948;5.316;2022-09-09T01:36:05;15.30;99.90
33139;DHT22;19501;50.948;5.316;2022-09-09T01:38:33;15.40;99.90
33139;DHT22;19501;50.948;5.316;2022-09-09T01:41:00;15.30;99.90
33139;DHT22;19501;50.948;5.316;2022-09-09T01:43:27;15.30;99.90
33139;DHT22;19501;50.948;5.316;2022-09-09T01:45:55;15.20;99.90
33139;DHT22;19501;50.948;5.316;2022-09-09T01:48:23;15.20;99.90
33139;DHT22;19501;50.948;5.316;2022-09-09T01:50:49;15.30;99.90
33139;DHT22;19501;50.948;5.316;2022-09-09T01:53:19;15.20;99.90
33139;DHT22;19501;50.948;5.316;2022-09-09T02:01:56;15.10;99.90
33139;DHT22;19501;50.948;5.316;2022-09-09T02:03:57;15.30;99.90
33139;DHT22;19501;50.948;5.316;2022-09-09T02:06:39;15.30;99.90
33139;DHT22;19501;50.948;5.316;2022-09-09T02:09:07;15.40;99.90
33139;DHT22;19501;50.948;5.316;2022-09-09T02:11:35;15.30;99.90
33139;DHT22;19501;50.948;5.316;2022-09-09T02:14:10;15.20;99.90
33139;DHT22;19501;50.948;5.316;2022-09-09T02:16:42;15.40;99.90
33139;DHT22;19501;50.948;5.316;2022-09-09T02:19:23;15.30;99.90
33139;DHT22;19501;50.948;5.316;2022-09-09T02:21:53;15.40;99.90
33139;DHT22;19501;50.948;5.316;2022-09-09T02:24:21;15.40;99.90
33139;DHT22;19501;50.948;5.316;2022-09-09T02:26:50;15.40;99.90
33139;DHT22;19501;50.948;5.316;2022-09-09T02:29:21;15.50;99.90
33139;DHT22;19501;50.948;5.316;2022-09-09T02:31:49;15.50;99.90
33139;DHT22;19501;50.948;5.316;2022-09-09T02:34:18;15.50;99.90
33139;DHT22;19501;50.948;5.316;2022-09-09T02:36:46;15.50;99.90
33139;DHT22;19501;50.948;5.316;2022-09-09T02:39:13;15.50;99.90
33139;DHT22;19501;50.948;5.316;2022-09-09T02:41:41;15.50;99.90
33139;DHT22;19501;50.948;5.316;2022-09-09T02:44:17;15.50;99.90
33139;DHT22;19501;50.948;5.316;2022-09-09T02:49:37;15.50;99.90
33139;DHT22;19501;50.948;5.316;2022-09-09T02:52:08;15.40;99.90
33139;DHT22;19501;50.948;5.316;2022-09-09T02:54:37;15.40;99.90
33139;DHT22;19501;50.948;5.316;2022-09-09T02:57:08;15.40;99.90
33139;DHT22;19501;50.948;5.316;2022-09-09T02:59:35;15.40;99.90
33139;DHT22;19501;50.948;5.316;2022-09-09T03:02:01;15.40;99.90
33139;DHT22;19501;50.948;5.316;2022-09-09T03:04:27;15.30;99.90
33139;DHT22;19501;50.948;5.316;2022-09-09T03:06:53;15.30;99.90
33139;DHT22;19501;50.948;5.316;2022-09-09T03:09:18;15.30;99.90
33139;DHT22;19501;50.948;5.316;2022-09-09T03:11:44;15.30;99.90
33139;DHT22;19501;50.948;5.316;2022-09-09T03:14:09;15.20;99.90
33139;DHT22;19501;50.948;5.316;2022-09-09T03:16:36;15.20;99.90
33139;DHT22;19501;50.948;5.316;2022-09-09T03:19:02;15.20;99.90
33139;DHT22;19501;50.948;5.316;2022-09-09T03:21:28;15.20;99.90
33139;DHT22;19501;50.948;5.316;2022-09-09T03:23:54;15.20;99.90
33139;DHT22;19501;50.948;5.316;2022-09-09T03:26:20;15.30;99.90
33139;DHT22;19501;50.948;5.316;2022-09-09T03:28:47;15.30;99.90
33139;DHT22;19501;50.948;5.316;2022-09-09T03:31:12;15.30;99.90
33139;DHT22;19501;50.948;5.316;2022-09-09T03:33:38;15.40;99.90
33139;DHT22;19501;50.948;5.316;2022-09-09T03:36:04;15.40;99.90
33139;DHT22;19501;50.948;5.316;2022-09-09T03:38:30;15.50;99.90
33139;DHT22;19501;50.948;5.316;2022-09-09T03:40:57;15.50;99.90
33139;DHT22;19501;50.948;5.316;2022-09-09T03:43:26;15.50;99.90
33139;DHT22;19501;50.948;5.316;2022-09-09T03:45:53;15.50;99.90
33139;DHT22;19501;50.948;5.316;2022-09-09T03:48:22;15.50;99.90
33139;DHT22;19501;50.948;5.316;2022-09-09T03:50:50;15.50;99.90
33139;DHT22;19501;50.948;5.316;2022-09-09T03:53:17;15.50;99.90
33139;DHT22;19501;50.948;5.316;2022-09-09T03:55:51;15.40;99.90
33139;DHT22;19501;50.948;5.316;2022-09-09T03:58:21;15.40;99.90
33139;DHT22;19501;50.948;5.316;2022-09-09T04:00:58;15.40;99.90
33139;DHT22;19501;50.948;5.316;2022-09-09T04:03:24;15.50;99.90
33139;DHT22;19501;50.948;5.316;2022-09-09T04:05:54;15.50;99.90
33139;DHT22;19501;50.948;5.316;2022-09-09T04:08:21;15.50;99.90
33139;DHT22;19501;50.948;5.316;2022-09-09T04:10:48;15.50;99.90
33139;DHT22;19501;50.948;5.316;2022-09-09T04:13:15;15.50;99.90
33139;DHT22;19501;50.948;5.316;2022-09-09T04:15:43;15.50;99.90
33139;DHT22;19501;50.948;5.316;2022-09-09T04:18:09;15.50;99.90
33139;DHT22;19501;50.948;5.316;2022-09-09T04:20:35;15.40;99.90
33139;DHT22;19501;50.948;5.316;2022-09-09T04:23:01;15.30;99.90
33139;DHT22;19501;50.948;5.316;2022-09-09T04:25:27;15.30;99.90
33139;DHT22;19501;50.948;5.316;2022-09-09T04:27:57;15.30;99.90
33139;DHT22;19501;50.948;5.316;2022-09-09T04:30:24;15.20;99.90
33139;DHT22;19501;50.948;5.316;2022-09-09T04:32:50;15.30;99.90
33139;DHT22;19501;50.948;5.316;2022-09-09T04:35:16;15.30;99.90
33139;DHT22;19501;50.948;5.316;2022-09-09T04:37:42;15.30;99.90
33139;DHT22;19501;50.948;5.316;2022-09-09T04:40:08;15.20;99.90
33139;DHT22;19501;50.948;5.316;2022-09-09T04:42:38;15.20;99.90
33139;DHT22;19501;50.948;5.316;2022-09-09T04:45:06;15.20;99.90
33139;DHT22;19501;50.948;5.316;2022-09-09T04:47:32;15.20;99.90
33139;DHT22;19501;50.948;5.316;2022-09-09T04:49:59;15.20;99.90
33139;DHT22;19501;50.948;5.316;2022-09-09T04:52:25;15.20;99.90
33139;DHT22;19501;50.948;5.316;2022-09-09T04:54:51;15.20;99.90
33139;DHT22;19501;50.948;5.316;2022-09-09T04:57:19;15.20;99.90
33139;DHT22;19501;50.948;5.316;2022-09-09T04:59:45;15.20;99.90
33139;DHT22;19501;50.948;5.316;2022-09-09T05:02:12;15.20;99.90
33139;DHT22;19501;50.948;5.316;2022-09-09T05:04:37;15.20;99.90
33139;DHT22;19501;50.948;5.316;2022-09-09T05:07:03;15.20;99.90
33139;DHT22;19501;50.948;5.316;2022-09-09T05:09:28;15.20;99.90
33139;DHT22;19501;50.948;5.316;2022-09-09T05:11:55;15.20;99.90
33139;DHT22;19501;50.948;5.316;2022-09-09T05:14:21;15.20;99.90
33139;DHT22;19501;50.948;5.316;2022-09-09T05:16:47;15.20;99.90
33139;DHT22;19501;50.948;5.316;2022-09-09T05:19:15;15.30;99.90
33139;DHT22;19501;50.948;5.316;2022-09-09T05:21:40;15.30;99.90
33139;DHT22;19501;50.948;5.316;2022-09-09T05:24:07;15.30;99.90
33139;DHT22;19501;50.948;5.316;2022-09-09T05:26:33;15.30;99.90
33139;DHT22;19501;50.948;5.316;2022-09-09T05:28:59;15.30;99.90
33139;DHT22;19501;50.948;5.316;2022-09-09T05:31:25;15.30;99.90
33139;DHT22;19501;50.948;5.316;2022-09-09T05:33:54;15.30;99.90
33139;DHT22;19501;50.948;5.316;2022-09-09T05:36:21;15.30;99.90
33139;DHT22;19501;50.948;5.316;2022-09-09T05:38:47;15.40;99.90
33139;DHT22;19501;50.948;5.316;2022-09-09T05:41:14;15.50;99.90
33139;DHT22;19501;50.948;5.316;2022-09-09T05:43:44;15.40;99.90
33139;DHT22;19501;50.948;5.316;2022-09-09T05:46:30;15.50;99.90
33139;DHT22;19501;50.948;5.316;2022-09-09T05:48:56;15.40;99.90
33139;DHT22;19501;50.948;5.316;2022-09-09T05:51:26;15.50;99.90
33139;DHT22;19501;50.948;5.316;2022-09-09T05:53:55;15.60;99.90
33139;DHT22;19501;50.948;5.316;2022-09-09T05:56:25;15.60;99.90
33139;DHT22;19501;50.948;5.316;2022-09-09T05:58:52;15.70;99.90
33139;DHT22;19501;50.948;5.316;2022-09-09T06:01:27;15.70;99.90
33139;DHT22;19501;50.948;5.316;2022-09-09T06:03:54;15.80;99.90
33139;DHT22;19501;50.948;5.316;2022-09-09T06:06:23;15.80;99.90
33139;DHT22;19501;50.948;5.316;2022-09-09T06:08:52;15.70;99.90
33139;DHT22;19501;50.948;5.316;2022-09-09T06:11:31;15.80;99.90
33139;DHT22;19501;50.948;5.316;2022-09-09T06:13:57;15.80;99.90
33139;DHT22;19501;50.948;5.316;2022-09-09T06:16:25;15.90;99.90
33139;DHT22;19501;50.948;5.316;2022-09-09T06:18:53;15.90;99.90
33139;DHT22;19501;50.948;5.316;2022-09-09T06:21:24;16.00;99.90
33139;DHT22;19501;50.948;5.316;2022-09-09T06:23:50;16.10;99.90
33139;DHT22;19501;50.948;5.316;2022-09-09T06:26:22;16.10;99.90
33139;DHT22;19501;50.948;5.316;2022-09-09T06:28:50;16.10;99.90
33139;DHT22;19501;50.948;5.316;2022-09-09T06:31:17;16.10;99.90
33139;DHT22;19501;50.948;5.316;2022-09-09T06:33:47;16.10;99.90
33139;DHT22;19501;50.948;5.316;2022-09-09T06:36:21;16.00;99.90
33139;DHT22;19501;50.948;5.316;2022-09-09T06:38:48;16.10;99.90
33139;DHT22;19501;50.948;5.316;2022-09-09T06:41:16;16.20;99.90
33139;DHT22;19501;50.948;5.316;2022-09-09T06:43:42;16.30;99.90
33139;DHT22;19501;50.948;5.316;2022-09-09T06:46:15;16.40;99.90
33139;DHT22;19501;50.948;5.316;2022-09-09T06:48:41;16.50;99.90
33139;DHT22;19501;50.948;5.316;2022-09-09T06:51:13;16.60;99.90
33139;DHT22;19501;50.948;5.316;2022-09-09T06:53:41;16.60;99.90
33139;DHT22;19501;50.948;5.316;2022-09-09T06:58:39;16.80;99.90
33139;DHT22;19501;50.948;5.316;2022-09-09T07:01:10;16.80;99.90
33139;DHT22;19501;50.948;5.316;2022-09-09T07:03:38;16.90;99.90
33139;DHT22;19501;50.948;5.316;2022-09-09T07:06:04;16.80;99.90
33139;DHT22;19501;50.948;5.316;2022-09-09T07:08:37;16.80;99.90
33139;DHT22;19501;50.948;5.316;2022-09-09T07:11:04;16.80;99.90
33139;DHT22;19501;50.948;5.316;2022-09-09T07:13:31;16.70;99.90
33139;DHT22;19501;50.948;5.316;2022-09-09T07:16:04;16.70;99.90
33139;DHT22;19501;50.948;5.316;2022-09-09T07:18:30;16.70;99.90
33139;DHT22;19501;50.948;5.316;2022-09-09T07:20:56;16.90;99.90
33139;DHT22;19501;50.948;5.316;2022-09-09T07:23:22;16.80;99.90
33139;DHT22;19501;50.948;5.316;2022-09-09T07:25:48;16.90;99.90
33139;DHT22;19501;50.948;5.316;2022-09-09T07:28:14;16.90;99.90
33139;DHT22;19501;50.948;5.316;2022-09-09T07:30:40;17.10;99.90
33139;DHT22;19501;50.948;5.316;2022-09-09T07:33:06;17.20;99.90
33139;DHT22;19501;50.948;5.316;2022-09-09T07:35:33;17.10;99.90
33139;DHT22;19501;50.948;5.316;2022-09-09T07:38:00;17.20;99.90
33139;DHT22;19501;50.948;5.316;2022-09-09T07:40:26;17.20;99.90
33139;DHT22;19501;50.948;5.316;2022-09-09T07:42:52;17.40;99.90
33139;DHT22;19501;50.948;5.316;2022-09-09T07:45:19;17.50;99.90
33139;DHT22;19501;50.948;5.316;2022-09-09T07:47:45;17.60;99.90
33139;DHT22;19501;50.948;5.316;2022-09-09T07:50:10;17.60;99.90
33139;DHT22;19501;50.948;5.316;2022-09-09T07:52:37;17.60;99.90
33139;DHT22;19501;50.948;5.316;2022-09-09T07:55:03;17.60;99.90
33139;DHT22;19501;50.948;5.316;2022-09-09T07:57:29;17.60;99.90
33139;DHT22;19501;50.948;5.316;2022-09-09T07:59:56;17.50;99.90
33139;DHT22;19501;50.948;5.316;2022-09-09T08:02:25;17.40;99.90
33139;DHT22;19501;50.948;5.316;2022-09-09T08:04:53;17.30;99.90
33139;DHT22;19501;50.948;5.316;2022-09-09T08:07:18;17.30;99.90
33139;DHT22;19501;50.948;5.316;2022-09-09T08:09:45;17.20;99.90
33139;DHT22;19501;50.948;5.316;2022-09-09T08:12:12;17.20;99.90
33139;DHT22;19501;50.948;5.316;2022-09-09T08:14:38;17.20;99.90
33139;DHT22;19501;50.948;5.316;2022-09-09T08:17:05;17.20;99.90
33139;DHT22;19501;50.948;5.316;2022-09-09T08:19:31;17.10;99.90
33139;DHT22;19501;50.948;5.316;2022-09-09T08:21:59;17.00;99.90
33139;DHT22;19501;50.948;5.316;2022-09-09T08:24:27;17.10;99.90
33139;DHT22;19501;50.948;5.316;2022-09-09T08:26:52;17.10;99.90
33139;DHT22;19501;50.948;5.316;2022-09-09T08:29:19;17.00;99.90
33139;DHT22;19501;50.948;5.316;2022-09-09T08:31:47;17.00;99.90
33139;DHT22;19501;50.948;5.316;2022-09-09T08:34:13;17.00;99.90
33139;DHT22;19501;50.948;5.316;2022-09-09T08:36:44;17.00;99.90
33139;DHT22;19501;50.948;5.316;2022-09-09T08:39:12;17.00;99.90
33139;DHT22;19501;50.948;5.316;2022-09-09T08:47:24;17.10;99.90
33139;DHT22;19501;50.948;5.316;2022-09-09T08:52:52;17.10;99.90
33139;DHT22;19501;50.948;5.316;2022-09-09T08:58:21;17.00;99.90
33139;DHT22;19501;50.948;5.316;2022-09-09T09:01:01;17.00;99.90
33139;DHT22;19501;50.948;5.316;2022-09-09T09:11:57;17.00;99.90
33139;DHT22;19501;50.948;5.316;2022-09-09T09:14:33;16.90;99.90
33139;DHT22;19501;50.948;5.316;2022-09-09T09:17:10;17.00;99.90
33139;DHT22;19501;50.948;5.316;2022-09-09T09:19:39;17.00;99.90
33139;DHT22;19501;50.948;5.316;2022-09-09T09:22:24;17.10;99.90
33139;DHT22;19501;50.948;5.316;2022-09-09T09:30:23;17.40;99.90
33139;DHT22;19501;50.948;5.316;2022-09-09T09:35:45;17.60;99.90
33139;DHT22;19501;50.948;5.316;2022-09-09T09:38:25;17.70;99.90
33139;DHT22;19501;50.948;5.316;2022-09-09T09:40:55;17.70;99.90
33139;DHT22;19501;50.948;5.316;2022-09-09T09:43:34;17.70;99.90
33139;DHT22;19501;50.948;5.316;2022-09-09T09:46:03;17.70;99.90
33139;DHT22;19501;50.948;5.316;2022-09-09T09:48:29;17.80;99.90
33139;DHT22;19501;50.948;5.316;2022-09-09T09:50:58;17.80;99.90
33139;DHT22;19501;50.948;5.316;2022-09-09T09:53:33;17.90;99.90
33139;DHT22;19501;50.948;5.316;2022-09-09T09:56:12;17.80;99.90
33139;DHT22;19501;50.948;5.316;2022-09-09T10:01:28;18.00;99.90
33139;DHT22;19501;50.948;5.316;2022-09-09T10:04:03;17.70;99.90
33139;DHT22;19501;50.948;5.316;2022-09-09T10:06:38;17.30;99.90
33139;DHT22;19501;50.948;5.316;2022-09-09T10:20:45;16.20;99.90
33139;DHT22;19501;50.948;5.316;2022-09-09T10:29:01;15.90;99.90
33139;DHT22;19501;50.948;5.316;2022-09-09T10:38:10;15.80;99.90
33139;DHT22;19501;50.948;5.316;2022-09-09T10:43:38;15.60;99.90
33139;DHT22;19501;50.948;5.316;2022-09-09T10:51:50;15.80;99.90
33139;DHT22;19501;50.948;5.316;2022-09-09T10:54:33;15.90;99.90
33139;DHT22;19501;50.948;5.316;2022-09-09T10:57:37;16.00;99.90
33139;DHT22;19501;50.948;5.316;2022-09-09T11:00:13;16.10;99.90
33139;DHT22;19501;50.948;5.316;2022-09-09T11:02:41;16.20;99.90
33139;DHT22;19501;50.948;5.316;2022-09-09T11:05:22;16.30;99.90
33139;DHT22;19501;50.948;5.316;2022-09-09T11:13:20;16.50;99.90
33139;DHT22;19501;50.948;5.316;2022-09-09T11:15:52;16.40;99.90
33139;DHT22;19501;50.948;5.316;2022-09-09T11:18:22;16.40;99.90
33139;DHT22;19501;50.948;5.316;2022-09-09T11:20:53;16.50;99.90
33139;DHT22;19501;50.948;5.316;2022-09-09T11:23:26;16.50;99.90
33139;DHT22;19501;50.948;5.316;2022-09-09T11:25:57;16.60;99.90
33139;DHT22;19501;50.948;5.316;2022-09-09T11:36:59;17.10;99.90
33139;DHT22;19501;50.948;5.316;2022-09-09T11:42:25;17.10;99.90
33139;DHT22;19501;50.948;5.316;2022-09-09T11:44:51;17.20;99.90
33139;DHT22;19501;50.948;5.316;2022-09-09T11:47:30;17.20;99.90
33139;DHT22;19501;50.948;5.316;2022-09-09T11:52:48;17.20;99.90
33139;DHT22;19501;50.948;5.316;2022-09-09T11:55:34;17.20;99.90
33139;DHT22;19501;50.948;5.316;2022-09-09T11:58:03;17.20;99.90
33139;DHT22;19501;50.948;5.316;2022-09-09T12:00:34;17.30;99.90
33139;DHT22;19501;50.948;5.316;2022-09-09T12:03:00;17.20;99.90
33139;DHT22;19501;50.948;5.316;2022-09-09T12:05:44;17.20;99.90
33139;DHT22;19501;50.948;5.316;2022-09-09T12:08:15;17.20;99.90
33139;DHT22;19501;50.948;5.316;2022-09-09T12:10:54;17.10;99.90
33139;DHT22;19501;50.948;5.316;2022-09-09T12:13:23;17.20;99.90
33139;DHT22;19501;50.948;5.316;2022-09-09T12:15:51;17.20;99.90
33139;DHT22;19501;50.948;5.316;2022-09-09T12:18:38;17.10;99.90
33139;DHT22;19501;50.948;5.316;2022-09-09T12:21:27;17.10;99.90
33139;DHT22;19501;50.948;5.316;2022-09-09T12:26:43;17.00;99.90
33139;DHT22;19501;50.948;5.316;2022-09-09T12:32:06;17.00;99.90
33139;DHT22;19501;50.948;5.316;2022-09-09T12:37:18;17.10;99.90
33139;DHT22;19501;50.948;5.316;2022-09-09T12:39:56;17.40;99.90
33139;DHT22;19501;50.948;5.316;2022-09-09T12:42:23;17.60;99.90
33139;DHT22;19501;50.948;5.316;2022-09-09T12:44:56;17.90;99.90
33139;DHT22;19501;50.948;5.316;2022-09-09T12:49:54;18.30;99.90
33139;DHT22;19501;50.948;5.316;2022-09-09T12:52:28;18.80;99.90
33139;DHT22;19501;50.948;5.316;2022-09-09T12:54:57;18.50;99.90
33139;DHT22;19501;50.948;5.316;2022-09-09T12:57:25;18.50;99.90
33139;DHT22;19501;50.948;5.316;2022-09-09T12:59:51;18.60;99.90
33139;DHT22;19501;50.948;5.316;2022-09-09T13:02:21;18.80;99.90
33139;DHT22;19501;50.948;5.316;2022-09-09T13:04:47;18.70;99.90
33139;DHT22;19501;50.948;5.316;2022-09-09T13:07:16;18.60;99.90
33139;DHT22;19501;50.948;5.316;2022-09-09T13:09:44;18.80;99.90
33139;DHT22;19501;50.948;5.316;2022-09-09T13:12:18;19.20;99.90
33139;DHT22;19501;50.948;5.316;2022-09-09T13:14:52;19.40;99.90
33139;DHT22;19501;50.948;5.316;2022-09-09T13:17:22;19.10;99.90
33139;DHT22;19501;50.948;5.316;2022-09-09T13:19:50;19.10;99.90
33139;DHT22;19501;50.948;5.316;2022-09-09T13:22:31;19.00;99.90
33139;DHT22;19501;50.948;5.316;2022-09-09T13:25:20;18.80;99.90
33139;DHT22;19501;50.948;5.316;2022-09-09T13:28:02;18.80;99.90
33139;DHT22;19501;50.948;5.316;2022-09-09T13:35:35;19.10;99.90
33139;DHT22;19501;50.948;5.316;2022-09-09T13:38:08;19.00;99.90
33139;DHT22;19501;50.948;5.316;2022-09-09T13:40:35;18.90;99.90
33139;DHT22;19501;50.948;5.316;2022-09-09T13:43:02;19.00;99.90
33139;DHT22;19501;50.948;5.316;2022-09-09T13:45:28;19.20;99.90
33139;DHT22;19501;50.948;5.316;2022-09-09T13:47:55;19.40;99.90
33139;DHT22;19501;50.948;5.316;2022-09-09T13:50:28;19.50;99.90
33139;DHT22;19501;50.948;5.316;2022-09-09T13:52:59;19.20;99.90
33139;DHT22;19501;50.948;5.316;2022-09-09T13:55:27;19.30;99.90
33139;DHT22;19501;50.948;5.316;2022-09-09T13:57:55;19.40;99.90
33139;DHT22;19501;50.948;5.316;2022-09-09T14:00:21;19.60;99.90
33139;DHT22;19501;50.948;5.316;2022-09-09T14:02:48;19.70;99.90
33139;DHT22;19501;50.948;5.316;2022-09-09T14:05:15;19.80;99.90
33139;DHT22;19501;50.948;5.316;2022-09-09T14:07:42;19.80;99.90
33139;DHT22;19501;50.948;5.316;2022-09-09T14:10:09;19.60;99.90
33139;DHT22;19501;50.948;5.316;2022-09-09T14:12:35;19.70;99.90
33139;DHT22;19501;50.948;5.316;2022-09-09T14:15:02;19.70;99.90
33139;DHT22;19501;50.948;5.316;2022-09-09T14:17:29;19.80;99.90
33139;DHT22;19501;50.948;5.316;2022-09-09T14:19:55;19.60;99.90
33139;DHT22;19501;50.948;5.316;2022-09-09T14:22:22;19.70;99.90
33139;DHT22;19501;50.948;5.316;2022-09-09T14:24:47;19.80;99.90
33139;DHT22;19501;50.948;5.316;2022-09-09T14:27:14;20.00;99.90
33139;DHT22;19501;50.948;5.316;2022-09-09T14:29:39;19.80;99.90
33139;DHT22;19501;50.948;5.316;2022-09-09T14:32:06;19.90;99.90
33139;DHT22;19501;50.948;5.316;2022-09-09T14:34:32;19.80;99.90
33139;DHT22;19501;50.948;5.316;2022-09-09T14:36:58;19.90;99.90
33139;DHT22;19501;50.948;5.316;2022-09-09T14:39:24;20.10;99.90
33139;DHT22;19501;50.948;5.316;2022-09-09T14:41:50;20.10;99.90
33139;DHT22;19501;50.948;5.316;2022-09-09T14:44:15;20.20;99.90
33139;DHT22;19501;50.948;5.316;2022-09-09T14:46:44;20.10;99.90
33139;DHT22;19501;50.948;5.316;2022-09-09T14:49:10;20.30;99.90
33139;DHT22;19501;50.948;5.316;2022-09-09T14:51:35;20.60;99.90
33139;DHT22;19501;50.948;5.316;2022-09-09T14:54:01;20.90;99.90
33139;DHT22;19501;50.948;5.316;2022-09-09T14:56:30;21.00;99.90
33139;DHT22;19501;50.948;5.316;2022-09-09T14:58:58;20.90;99.90
33139;DHT22;19501;50.948;5.316;2022-09-09T15:01:25;20.80;99.90
33139;DHT22;19501;50.948;5.316;2022-09-09T15:03:56;20.90;99.90
33139;DHT22;19501;50.948;5.316;2022-09-09T15:06:23;20.90;99.90
33139;DHT22;19501;50.948;5.316;2022-09-09T15:08:51;20.90;99.90
33139;DHT22;19501;50.948;5.316;2022-09-09T15:11:18;20.90;99.90
33139;DHT22;19501;50.948;5.316;2022-09-09T15:13:43;20.90;99.90
33139;DHT22;19501;50.948;5.316;2022-09-09T15:16:11;20.70;99.90
33139;DHT22;19501;50.948;5.316;2022-09-09T15:18:37;20.80;99.90
33139;DHT22;19501;50.948;5.316;2022-09-09T15:21:06;20.80;99.90
33139;DHT22;19501;50.948;5.316;2022-09-09T15:23:32;20.70;99.90
33139;DHT22;19501;50.948;5.316;2022-09-09T15:25:58;20.40;99.90
33139;DHT22;19501;50.948;5.316;2022-09-09T15:28:24;20.30;99.90
33139;DHT22;19501;50.948;5.316;2022-09-09T15:30:50;20.10;99.90
33139;DHT22;19501;50.948;5.316;2022-09-09T15:33:18;20.00;99.90
33139;DHT22;19501;50.948;5.316;2022-09-09T15:35:43;20.10;99.90
33139;DHT22;19501;50.948;5.316;2022-09-09T15:38:09;20.00;99.90
33139;DHT22;19501;50.948;5.316;2022-09-09T15:40:35;20.20;99.90
33139;DHT22;19501;50.948;5.316;2022-09-09T15:43:01;20.30;99.90
33139;DHT22;19501;50.948;5.316;2022-09-09T15:45:28;20.30;99.90
33139;DHT22;19501;50.948;5.316;2022-09-09T15:47:57;20.30;99.90
33139;DHT22;19501;50.948;5.316;2022-09-09T15:50:23;20.30;99.90
33139;DHT22;19501;50.948;5.316;2022-09-09T15:52:49;20.30;99.90
33139;DHT22;19501;50.948;5.316;2022-09-09T15:55:14;20.40;99.90
33139;DHT22;19501;50.948;5.316;2022-09-09T15:57:40;20.50;99.90
33139;DHT22;19501;50.948;5.316;2022-09-09T16:00:07;20.50;99.90
33139;DHT22;19501;50.948;5.316;2022-09-09T16:02:32;20.70;99.90
33139;DHT22;19501;50.948;5.316;2022-09-09T16:05:00;20.40;99.90
33139;DHT22;19501;50.948;5.316;2022-09-09T16:07:26;20.20;99.90
33139;DHT22;19501;50.948;5.316;2022-09-09T16:09:52;20.30;99.90
33139;DHT22;19501;50.948;5.316;2022-09-09T16:12:19;20.20;99.90
33139;DHT22;19501;50.948;5.316;2022-09-09T16:14:44;20.20;99.90
33139;DHT22;19501;50.948;5.316;2022-09-09T16:17:10;20.10;99.90
33139;DHT22;19501;50.948;5.316;2022-09-09T16:19:36;20.10;99.90
33139;DHT22;19501;50.948;5.316;2022-09-09T16:22:03;20.10;99.90
33139;DHT22;19501;50.948;5.316;2022-09-09T16:24:32;20.10;99.90
33139;DHT22;19501;50.948;5.316;2022-09-09T16:27:00;20.00;99.90
33139;DHT22;19501;50.948;5.316;2022-09-09T16:29:26;19.90;99.90
33139;DHT22;19501;50.948;5.316;2022-09-09T16:31:53;19.80;99.90
33139;DHT22;19501;50.948;5.316;2022-09-09T16:34:20;19.80;99.90
33139;DHT22;19501;50.948;5.316;2022-09-09T16:36:46;19.90;99.90
33139;DHT22;19501;50.948;5.316;2022-09-09T16:39:15;19.80;99.90
33139;DHT22;19501;50.948;5.316;2022-09-09T16:41:43;19.60;99.90
33139;DHT22;19501;50.948;5.316;2022-09-09T16:44:10;19.50;99.90
33139;DHT22;19501;50.948;5.316;2022-09-09T16:46:39;19.50;99.90
33139;DHT22;19501;50.948;5.316;2022-09-09T16:49:07;19.30;99.90
33139;DHT22;19501;50.948;5.316;2022-09-09T16:51:38;19.30;99.90
33139;DHT22;19501;50.948;5.316;2022-09-09T16:54:06;19.20;99.90
33139;DHT22;19501;50.948;5.316;2022-09-09T16:56:33;19.30;99.90
33139;DHT22;19501;50.948;5.316;2022-09-09T16:59:02;19.30;99.90
33139;DHT22;19501;50.948;5.316;2022-09-09T17:01:30;19.10;99.90
33139;DHT22;19501;50.948;5.316;2022-09-09T17:03:58;19.00;99.90
33139;DHT22;19501;50.948;5.316;2022-09-09T17:06:24;19.00;99.90
33139;DHT22;19501;50.948;5.316;2022-09-09T17:08:55;19.00;99.90
33139;DHT22;19501;50.948;5.316;2022-09-09T17:11:21;19.00;99.90
33139;DHT22;19501;50.948;5.316;2022-09-09T17:13:49;19.00;99.90
33139;DHT22;19501;50.948;5.316;2022-09-09T17:16:19;18.90;99.90
33139;DHT22;19501;50.948;5.316;2022-09-09T17:18:48;18.90;99.90
33139;DHT22;19501;50.948;5.316;2022-09-09T17:21:16;18.80;99.90
33139;DHT22;19501;50.948;5.316;2022-09-09T17:23:42;18.80;99.90
33139;DHT22;19501;50.948;5.316;2022-09-09T17:26:11;18.70;99.90
33139;DHT22;19501;50.948;5.316;2022-09-09T17:28:38;18.80;99.90
33139;DHT22;19501;50.948;5.316;2022-09-09T17:31:10;18.70;99.90
33139;DHT22;19501;50.948;5.316;2022-09-09T17:33:38;18.70;99.90
33139;DHT22;19501;50.948;5.316;2022-09-09T17:36:13;18.60;99.90
33139;DHT22;19501;50.948;5.316;2022-09-09T17:38:39;18.60;99.90
33139;DHT22;19501;50.948;5.316;2022-09-09T17:41:12;18.60;99.90
33139;DHT22;19501;50.948;5.316;2022-09-09T17:43:38;18.60;99.90
33139;DHT22;19501;50.948;5.316;2022-09-09T17:48:36;18.50;99.90
33139;DHT22;19501;50.948;5.316;2022-09-09T17:51:07;18.50;99.90
33139;DHT22;19501;50.948;5.316;2022-09-09T17:53:37;18.00;99.90
33139;DHT22;19501;50.948;5.316;2022-09-09T17:56:04;17.60;99.90
33139;DHT22;19501;50.948;5.316;2022-09-09T17:58:31;17.30;99.90
33139;DHT22;19501;50.948;5.316;2022-09-09T18:01:08;17.10;99.90
33139;DHT22;19501;50.948;5.316;2022-09-09T18:03:38;17.00;99.90
33139;DHT22;19501;50.948;5.316;2022-09-09T18:06:06;16.90;99.90
33139;DHT22;19501;50.948;5.316;2022-09-09T18:08:33;16.80;99.90
33139;DHT22;19501;50.948;5.316;2022-09-09T18:11:00;16.80;99.90